Time;durP1;ratioP1;P1;durP2;ratioP2;P2;SDS_P1;SDS_P2;PMS_P1;PMS_P2;Temp;Humidity;BMP_temperature;BMP_pressure;BME280_temperature;BME280_humidity;BME280_pressure;Samples;Min_cycle;Max_cycle;Signal;HPM_P1;HPM_P2
2021/07/27 00:02:22;;;;;;;;;15.00;13.75;;;;;31.81;28.23;101335.63;144161;593;132010;-67
2021/07/27 00:05:15;;;;;;;;;20.50;16.50;;;;;31.82;28.04;101331.06;144172;737;131020;-68
2021/07/27 00:08:10;;;;;;;;;13.00;13.00;;;;;31.70;28.40;101331.38;144156;621;133913;-69
2021/07/27 00:11:07;;;;;;;;;12.50;12.50;;;;;31.30;29.12;101323.97;144160;625;131021;-70
2021/07/27 00:13:59;;;;;;;;;14.25;14.25;;;;;31.26;29.22;101330.72;144156;596;131016;-68
2021/07/27 00:16:51;;;;;;;;;14.00;13.25;;;;;31.27;29.20;101337.84;144153;719;149021;-67
2021/07/27 00:19:44;;;;;;;;;14.50;14.50;;;;;31.26;29.05;101328.00;144150;655;132010;-67
2021/07/27 00:22:36;;;;;;;;;12.00;12.00;;;;;31.08;29.66;101330.84;144180;564;131020;-67
2021/07/27 00:25:28;;;;;;;;;15.00;13.75;;;;;30.99;29.62;101325.34;144150;606;132010;-66
2021/07/27 00:28:20;;;;;;;;;16.00;14.00;;;;;31.09;30.18;101325.25;144176;570;131020;-66
2021/07/27 00:31:20;;;;;;;;;16.25;13.25;;;;;31.18;29.54;101321.56;144166;674;131017;-66
2021/07/27 00:34:12;;;;;;;;;13.50;13.50;;;;;31.22;28.98;101322.06;144171;632;132008;-61
2021/07/27 00:37:04;;;;;;;;;14.75;13.50;;;;;31.24;28.78;101324.63;144152;572;132912;-63
2021/07/27 00:39:56;;;;;;;;;13.25;13.25;;;;;31.29;28.97;101324.97;144159;660;132009;-61
2021/07/27 00:42:50;;;;;;;;;17.00;13.50;;;;;31.33;28.97;101324.50;144153;593;131042;-63
2021/07/27 00:45:43;;;;;;;;;14.25;14.25;;;;;31.33;28.84;101332.63;144171;606;132008;-64
2021/07/27 00:48:35;;;;;;;;;14.75;14.00;;;;;31.31;29.07;101326.50;144157;594;131913;-64
2021/07/27 00:51:28;;;;;;;;;17.75;16.25;;;;;31.44;28.90;101334.19;144179;610;131020;-65
2021/07/27 00:54:20;;;;;;;;;11.25;11.25;;;;;31.62;28.92;101327.78;144151;696;131913;-64
2021/07/27 00:57:12;;;;;;;;;12.75;12.75;;;;;31.65;28.54;101343.75;144169;563;132008;-63
2021/07/27 01:00:05;;;;;;;;;13.25;12.25;;;;;31.62;28.61;101333.22;144168;607;132010;-63
2021/07/27 01:02:57;;;;;;;;;13.00;13.00;;;;;31.53;29.42;101341.31;144181;583;131020;-63
2021/07/27 01:05:50;;;;;;;;;12.00;12.00;;;;;31.47;29.15;101347.41;144157;652;131016;-63
2021/07/27 01:08:45;;;;;;;;;14.75;13.25;;;;;31.35;29.26;101338.72;144154;684;132008;-63
2021/07/27 01:11:47;;;;;;;;;12.50;12.50;;;;;31.15;29.74;101335.44;144151;582;132039;-64
2021/07/27 01:14:39;;;;;;;;;16.50;13.50;;;;;30.93;30.09;101328.69;144173;617;131020;-66
2021/07/27 01:17:31;;;;;;;;;17.00;14.50;;;;;30.95;30.03;101320.38;144159;629;131017;-66
2021/07/27 01:20:34;;;;;;;;;15.00;13.75;;;;;30.96;29.95;101327.53;144170;578;132008;-67
2021/07/27 01:39:55;;;;;;;;;16.50;14.75;;;;;31.39;29.41;101325.69;144156;599;132008;-67
2021/07/27 01:42:47;;;;;;;;;15.50;13.50;;;;;31.35;29.10;101322.44;144153;628;131016;-68
2021/07/27 01:45:39;;;;;;;;;14.00;13.00;;;;;31.29;29.45;101320.41;144180;663;131020;-66
2021/07/27 01:48:41;;;;;;;;;13.50;13.50;;;;;31.21;29.55;101326.66;144148;588;132012;-67
2021/07/27 01:51:33;;;;;;;;;12.50;12.50;;;;;31.15;29.44;101323.75;144174;612;131020;-67
2021/07/27 01:54:29;;;;;;;;;15.50;14.50;;;;;31.00;30.02;101323.47;144156;573;131032;-66
2021/07/27 01:57:24;;;;;;;;;14.50;13.00;;;;;30.96;29.85;101322.97;144167;661;132012;-67
2021/07/27 02:00:16;;;;;;;;;17.25;16.00;;;;;31.02;29.79;101329.59;144163;650;132012;-67
2021/07/27 02:03:09;;;;;;;;;14.25;14.00;;;;;30.93;29.54;101333.28;144180;575;131017;-66
2021/07/27 02:06:01;;;;;;;;;13.00;12.00;;;;;30.89;29.45;101322.75;144145;662;132010;-68
2021/07/27 02:08:55;;;;;;;;;15.00;15.00;;;;;30.94;29.73;101318.72;144158;591;132009;-67
2021/07/27 02:11:54;;;;;;;;;13.25;13.25;;;;;31.04;29.54;101322.16;144151;584;132010;-66
2021/07/27 02:15:06;;;;;;;;;13.50;12.25;;;;;31.02;29.51;101316.91;144170;576;132009;-67
2021/07/27 02:17:58;;;;;;;;;14.75;14.75;;;;;31.16;29.72;101312.72;144150;591;134912;-67
2021/07/27 02:21:08;;;;;;;;;14.00;12.00;;;;;31.20;29.48;101310.53;144175;576;132008;-68
2021/07/27 02:24:05;;;;;;;;;13.25;13.25;;;;;31.16;29.53;101325.44;144154;712;131017;-65
2021/07/27 02:26:57;;;;;;;;;14.50;14.00;;;;;31.20;29.82;101322.22;144171;572;132008;-66
2021/07/27 02:29:50;;;;;;;;;13.50;13.50;;;;;31.24;29.54;101328.19;144167;586;131017;-67
2021/07/27 02:32:45;;;;;;;;;13.00;13.00;;;;;31.05;29.81;101322.00;144168;579;132008;-68
2021/07/27 02:35:43;;;;;;;;;10.75;10.75;;;;;31.11;30.14;101327.78;144152;572;131016;-69
2021/07/27 02:38:35;;;;;;;;;14.00;14.00;;;;;31.20;30.00;101330.38;144158;576;132008;-69
2021/07/27 02:41:45;;;;;;;;;13.00;11.75;;;;;31.25;30.13;101326.31;144149;629;132012;-70
2021/07/27 02:44:37;;;;;;;;;16.25;16.25;;;;;31.33;30.15;101329.91;144169;631;132008;-70
2021/07/27 02:47:30;;;;;;;;;16.75;15.50;;;;;31.26;30.42;101328.84;144153;580;131912;-69
2021/07/27 02:50:21;;;;;;;;;14.50;13.50;;;;;31.35;30.46;101333.28;144172;601;131038;-70
2021/07/27 02:53:14;;;;;;;;;15.25;14.00;;;;;31.26;30.55;101328.00;144154;573;132912;-69
2021/07/27 02:56:07;;;;;;;;;12.00;12.00;;;;;31.26;30.72;101333.44;144177;593;131020;-70
2021/07/27 02:58:59;;;;;;;;;13.25;13.25;;;;;31.25;30.79;101332.59;144158;566;132912;-69
2021/07/27 03:01:51;;;;;;;;;14.50;14.50;;;;;31.19;31.11;101339.53;144168;571;132012;-69
2021/07/27 03:04:43;;;;;;;;;16.25;15.50;;;;;30.97;31.85;101340.06;144155;767;131016;-69
2021/07/27 03:07:49;;;;;;;;;16.25;15.75;;;;;30.65;31.64;101338.91;144157;584;132008;-67
2021/07/27 03:10:42;;;;;;;;;18.25;15.00;;;;;30.62;31.39;101342.78;144150;592;132912;-67
2021/07/27 03:13:34;;;;;;;;;19.50;15.75;;;;;30.64;31.59;101348.03;144173;607;132008;-66
2021/07/27 03:16:28;;;;;;;;;12.75;12.50;;;;;30.69;31.46;101353.81;144158;570;131017;-67
2021/07/27 03:19:23;;;;;;;;;15.75;14.00;;;;;30.75;31.08;101347.75;144166;565;132012;-69
2021/07/27 03:22:16;;;;;;;;;12.75;12.75;;;;;30.70;30.85;101355.50;144148;594;132912;-69
2021/07/27 03:25:16;;;;;;;;;14.00;13.75;;;;;30.77;30.26;101364.72;144175;666;132012;-68
2021/07/27 03:28:09;;;;;;;;;15.00;15.00;;;;;30.71;30.48;101355.37;144160;646;133912;-69
2021/07/27 03:31:01;;;;;;;;;14.00;14.00;;;;;30.68;30.37;101355.66;144168;634;132012;-67
2021/07/27 03:33:54;;;;;;;;;16.75;13.75;;;;;30.64;30.57;101356.16;144148;597;132012;-68
2021/07/27 03:36:47;;;;;;;;;14.25;14.25;;;;;30.49;30.76;101356.72;144158;751;132024;-68
2021/07/27 03:39:39;;;;;;;;;16.25;15.25;;;;;30.20;31.54;101352.41;144157;596;131016;-68
2021/07/27 03:42:31;;;;;;;;;17.75;17.75;;;;;30.25;31.41;101353.78;144175;667;131020;-69
2021/07/27 03:45:23;;;;;;;;;16.25;15.50;;;;;30.26;31.73;101361.75;144150;646;132010;-68
2021/07/27 03:48:19;;;;;;;;;16.75;16.75;;;;;30.28;31.46;101357.06;144175;585;131020;-66
2021/07/27 03:51:11;;;;;;;;;21.50;19.00;;;;;30.27;31.37;101366.16;144157;610;131016;-67
2021/07/27 03:54:18;;;;;;;;;18.25;16.50;;;;;30.38;31.44;101360.50;144174;576;132008;-65
2021/07/27 03:57:10;;;;;;;;;11.00;10.50;;;;;30.41;31.67;101363.91;144167;569;131912;-68
2021/07/27 04:00:02;;;;;;;;;19.75;17.00;;;;;30.40;32.01;101354.94;144171;661;132008;-68
2021/07/27 04:02:54;;;;;;;;;17.00;16.00;;;;;30.40;31.86;101376.63;144148;569;131912;-66
2021/07/27 04:05:46;;;;;;;;;15.00;15.00;;;;;30.43;32.09;101370.88;144156;620;132008;-67
2021/07/27 04:08:38;;;;;;;;;15.75;15.75;;;;;30.40;32.08;101373.91;144157;678;131913;-67
2021/07/27 04:11:30;;;;;;;;;15.50;14.25;;;;;30.41;32.31;101372.87;144174;609;131020;-68
2021/07/27 04:14:23;;;;;;;;;18.00;17.50;;;;;30.45;32.31;101377.00;144159;589;131017;-68
2021/07/27 04:17:21;;;;;;;;;15.75;15.50;;;;;30.49;32.28;101372.97;144169;589;133008;-67
2021/07/27 04:20:14;;;;;;;;;15.25;15.25;;;;;30.60;32.24;101371.03;144158;596;131016;-68
2021/07/27 04:23:07;;;;;;;;;14.00;13.75;;;;;30.65;32.26;101374.12;144177;676;131021;-69
2021/07/27 04:25:59;;;;;;;;;14.75;14.50;;;;;30.55;32.80;101380.47;144166;594;132010;-67
2021/07/27 04:28:51;;;;;;;;;17.00;17.00;;;;;30.55;32.82;101379.59;144167;593;132049;-67
2021/07/27 04:31:47;;;;;;;;;15.00;15.00;;;;;30.64;32.68;101384.09;144155;589;131016;-67
2021/07/27 04:34:39;;;;;;;;;17.00;14.75;;;;;30.70;32.98;101382.59;144157;576;131020;-68
2021/07/27 04:37:31;;;;;;;;;18.50;17.00;;;;;30.89;33.13;101381.53;144155;597;132010;-66
2021/07/27 04:40:24;;;;;;;;;17.50;14.00;;;;;31.03;33.34;101382.84;144173;625;131020;-67
2021/07/27 04:43:18;;;;;;;;;16.75;16.75;;;;;31.28;32.85;101382.97;144155;622;132012;-67
2021/07/27 04:46:11;;;;;;;;;18.25;16.50;;;;;31.42;32.96;101382.31;144175;588;131020;-66
2021/07/27 04:49:03;;;;;;;;;16.00;14.50;;;;;31.59;32.57;101382.37;144154;727;131912;-68
2021/07/27 04:51:55;;;;;;;;;19.75;19.75;;;;;31.48;33.15;101386.22;144171;573;132008;-66
2021/07/27 04:54:55;;;;;;;;;16.00;16.00;;;;;31.55;32.53;101388.12;144171;595;132010;-66
2021/07/27 04:57:47;;;;;;;;;14.50;14.25;;;;;31.90;31.11;101385.34;144170;567;132008;-67
2021/07/27 05:00:39;;;;;;;;;21.25;16.75;;;;;31.99;31.11;101392.50;144159;651;131913;-66
2021/07/27 05:03:34;;;;;;;;;17.75;17.25;;;;;31.96;30.73;101381.97;144148;653;132012;-66
2021/07/27 05:06:27;;;;;;;;;17.00;17.00;;;;;32.09;30.64;101389.63;144160;646;131017;-67
2021/07/27 05:09:19;;;;;;;;;15.50;15.00;;;;;32.22;30.54;101390.00;144171;663;132008;-67
2021/07/27 05:12:12;;;;;;;;;19.50;19.00;;;;;32.43;31.15;101395.94;144156;605;131016;-65
2021/07/27 05:15:04;;;;;;;;;19.50;17.00;;;;;32.63;30.39;101394.56;144165;604;132012;-70
2021/07/27 05:18:03;;;;;;;;;17.75;17.75;;;;;32.74;30.54;101398.84;144156;583;131912;-69
2021/07/27 05:20:55;;;;;;;;;17.00;16.25;;;;;32.93;30.97;101396.72;144171;646;132008;-67
2021/07/27 05:23:48;;;;;;;;;16.00;14.00;;;;;33.13;30.71;101402.63;144164;581;132010;-68
2021/07/27 05:26:40;;;;;;;;;16.75;16.75;;;;;33.31;30.20;101402.41;144172;564;131021;-69
2021/07/27 05:29:32;;;;;;;;;15.00;15.00;;;;;33.51;30.62;101400.13;144152;620;132010;-70
2021/07/27 05:32:26;;;;;;;;;20.00;19.00;;;;;33.63;30.29;101395.97;144155;616;132026;-68
2021/07/27 05:35:18;;;;;;;;;15.75;14.25;;;;;33.83;30.27;101403.69;144147;591;132012;-68
2021/07/27 05:38:11;;;;;;;;;15.50;14.75;;;;;34.00;30.01;101393.56;144167;716;132012;-68
2021/07/27 05:41:03;;;;;;;;;12.25;11.25;;;;;34.16;29.68;101403.47;144150;580;132012;-69
2021/07/27 05:43:57;;;;;;;;;16.00;16.00;;;;;34.21;29.04;101409.22;144171;604;132008;-68
2021/07/27 05:46:49;;;;;;;;;17.00;16.00;;;;;34.34;28.99;101408.66;144155;569;131912;-69
2021/07/27 05:49:43;;;;;;;;;16.50;14.00;;;;;34.30;28.89;101399.16;144170;626;131021;-67
2021/07/27 05:52:35;;;;;;;;;18.00;18.00;;;;;34.28;29.07;101414.78;144165;648;131912;-69
2021/07/27 05:55:27;;;;;;;;;14.25;14.25;;;;;34.64;28.56;101411.41;144170;754;132008;-67
2021/07/27 05:58:19;;;;;;;;;17.00;17.00;;;;;34.74;28.45;101406.56;144151;697;132010;-68
2021/07/27 06:01:12;;;;;;;;;16.25;14.75;;;;;34.82;28.00;101405.66;144156;682;131020;-66
2021/07/27 06:04:04;;;;;;;;;14.00;14.00;;;;;34.94;27.42;101404.16;144156;587;131913;-67
2021/07/27 06:06:56;;;;;;;;;18.00;18.00;;;;;34.83;27.78;101400.03;144169;569;132008;-67
2021/07/27 06:09:48;;;;;;;;;20.00;20.00;;;;;34.98;27.97;101401.88;144150;563;131023;-67
2021/07/27 06:12:41;;;;;;;;;15.25;15.25;;;;;35.12;26.88;101403.78;144169;574;131020;-66
2021/07/27 06:15:33;;;;;;;;;17.25;15.75;;;;;35.36;26.30;101407.25;144146;609;132010;-67
2021/07/27 06:18:25;;;;;;;;;16.50;16.00;;;;;35.49;25.84;101399.25;144171;703;132008;-68
2021/07/27 06:21:18;;;;;;;;;20.50;17.50;;;;;35.20;26.35;101395.50;144162;636;132010;-68
2021/07/27 06:24:11;;;;;;;;;14.50;14.50;;;;;34.48;24.94;101402.38;144174;585;132008;-69
2021/07/27 06:27:04;;;;;;;;;16.00;14.25;;;;;35.65;23.82;101402.78;144146;708;132010;-69
2021/07/27 06:29:56;;;;;;;;;12.75;12.75;;;;;35.78;24.11;101392.00;144159;581;131020;-68
2021/07/27 06:32:48;;;;;;;;;14.75;14.75;;;;;35.90;24.25;101395.09;144155;566;131016;-68
2021/07/27 06:35:41;;;;;;;;;16.75;15.50;;;;;35.86;24.57;101400.09;144173;567;132012;-67
2021/07/27 06:38:33;;;;;;;;;13.50;13.50;;;;;36.17;24.61;101398.94;144152;592;131912;-68
2021/07/27 06:41:25;;;;;;;;;19.00;18.50;;;;;36.26;24.12;101392.28;144171;647;132008;-68
2021/07/27 06:44:18;;;;;;;;;14.75;14.75;;;;;35.88;24.15;101389.84;144154;569;132912;-68
2021/07/27 06:47:12;;;;;;;;;18.25;18.25;;;;;36.12;24.82;101400.56;144172;599;132008;-67
2021/07/27 06:50:04;;;;;;;;;16.75;16.75;;;;;36.46;22.76;101391.62;144165;566;131016;-67
2021/07/27 06:52:56;;;;;;;;;18.00;17.25;;;;;35.64;26.49;101398.38;144173;625;131020;-68
2021/07/27 06:55:49;;;;;;;;;15.50;14.50;;;;;36.22;26.36;101399.16;144148;564;132012;-69
2021/07/27 06:58:43;;;;;;;;;18.75;17.00;;;;;36.30;26.32;101392.72;144158;698;132008;-71
2021/07/27 07:01:35;;;;;;;;;20.00;18.25;;;;;35.76;27.35;101396.81;144151;646;132012;-70
2021/07/27 07:04:29;;;;;;;;;18.00;18.00;;;;;36.31;26.62;101393.59;144173;609;131021;-69
2021/07/27 07:07:22;;;;;;;;;17.25;17.00;;;;;34.46;30.19;101398.12;144152;630;131912;-68
2021/07/27 07:10:15;;;;;;;;;18.25;17.00;;;;;35.46;28.14;101396.03;144171;630;131020;-69
2021/07/27 07:13:07;;;;;;;;;14.75;13.50;;;;;34.96;28.35;101398.53;144148;575;131016;-68
2021/07/27 07:15:59;;;;;;;;;18.75;17.50;;;;;34.32;29.90;101406.09;144170;577;132012;-68
2021/07/27 07:18:52;;;;;;;;;17.00;16.75;;;;;35.36;27.60;101399.06;144165;694;131017;-68
2021/07/27 07:21:43;;;;;;;;;21.25;19.75;;;;;35.44;27.84;101396.22;144170;611;132012;-69
2021/07/27 07:24:36;;;;;;;;;19.50;19.50;;;;;35.67;26.94;101389.78;144153;567;132013;-69
2021/07/27 07:28:01;;;;;;;;;22.00;21.75;;;;;36.26;26.00;101397.72;144153;654;132008;-68
2021/07/27 07:31:38;;;;;;;;;20.75;20.00;;;;;34.97;26.06;101392.03;144151;571;133909;-68
2021/07/27 07:34:30;;;;;;;;;19.00;17.25;;;;;35.91;24.85;101394.03;144171;565;132008;-69
2021/07/27 07:37:22;;;;;;;;;19.00;19.00;;;;;36.29;25.78;101396.50;144159;599;131019;-69
2021/07/27 07:40:15;;;;;;;;;18.75;18.75;;;;;36.39;26.23;101398.94;144178;595;132008;-67
2021/07/27 07:43:08;;;;;;;;;16.50;15.00;;;;;35.70;26.77;101392.13;144147;574;132911;-68
2021/07/27 07:46:00;;;;;;;;;18.00;18.00;;;;;35.58;27.53;101398.09;144172;577;131020;-69
2021/07/27 07:48:52;;;;;;;;;18.00;18.00;;;;;35.15;28.09;101403.41;144165;571;131017;-69
2021/07/27 07:51:46;;;;;;;;;20.75;20.25;;;;;35.30;27.81;101402.56;144167;571;132012;-70
2021/07/27 07:54:38;;;;;;;;;16.75;14.00;;;;;35.21;28.11;101397.19;144155;564;132019;-69
2021/07/27 07:57:31;;;;;;;;;18.25;17.00;;;;;35.29;27.77;101392.66;144160;577;131021;-69
2021/07/27 08:00:23;;;;;;;;;20.25;19.75;;;;;35.25;27.52;101390.31;144147;613;132010;-68
2021/07/27 08:03:15;;;;;;;;;18.75;17.75;;;;;34.93;27.48;101402.47;144172;601;131021;-69
2021/07/27 08:06:08;;;;;;;;;20.25;20.00;;;;;35.16;27.05;101391.44;144153;581;131016;-68
2021/07/27 08:09:38;;;;;;;;;21.50;18.25;;;;;35.16;27.07;101394.19;144170;584;132008;-70
2021/07/27 08:12:30;;;;;;;;;19.25;19.25;;;;;35.52;26.91;101395.28;144152;580;131912;-70
2021/07/27 08:15:26;;;;;;;;;17.25;17.25;;;;;35.86;26.92;101391.91;144167;719;132012;-71
2021/07/27 08:18:18;;;;;;;;;17.50;16.75;;;;;35.91;26.51;101394.91;144166;587;131016;-70
2021/07/27 08:21:10;;;;;;;;;14.75;14.50;;;;;36.01;25.70;101385.53;144179;615;131020;-70
2021/07/27 08:24:02;;;;;;;;;15.50;15.00;;;;;35.78;26.06;101386.53;144158;597;131016;-70
2021/07/27 08:26:54;;;;;;;;;16.00;14.75;;;;;36.31;25.48;101379.94;144154;622;132008;-70
2021/07/27 08:29:46;;;;;;;;;16.50;16.50;;;;;35.95;25.38;101378.97;144152;628;132016;-70
2021/07/27 08:32:38;;;;;;;;;18.00;15.75;;;;;36.84;24.61;101380.34;144172;579;132008;-70
2021/07/27 08:35:31;;;;;;;;;13.50;13.50;;;;;36.79;24.50;101373.78;144153;624;131016;-70
2021/07/27 08:38:23;;;;;;;;;15.50;13.75;;;;;37.15;23.63;101367.25;144172;639;132008;-70
2021/07/27 08:41:20;;;;;;;;;19.25;17.75;;;;;37.12;23.55;101365.75;144147;605;132012;-71
2021/07/27 08:44:20;;;;;;;;;12.50;12.00;;;;;36.04;25.64;101369.59;144174;571;131020;-70
2021/07/27 08:47:13;;;;;;;;;14.50;14.50;;;;;35.69;25.11;101368.56;144166;575;132010;-74
2021/07/27 08:50:09;;;;;;;;;14.25;14.25;;;;;34.79;25.24;101362.34;144176;639;131012;-71
2021/07/27 08:53:01;;;;;;;;;14.25;14.00;;;;;35.35;25.32;101372.81;144148;629;132010;-71
2021/07/27 08:55:53;;;;;;;;;14.50;14.50;;;;;35.32;24.99;101363.16;144155;713;131021;-71
2021/07/27 08:58:45;;;;;;;;;14.75;13.00;;;;;35.25;23.77;101363.03;144144;563;132012;-70
2021/07/27 09:01:40;;;;;;;;;13.25;13.25;;;;;34.41;24.46;101361.38;144172;586;132012;-71
2021/07/27 09:04:33;;;;;;;;;13.00;13.00;;;;;34.15;25.43;101369.94;144158;622;131016;-71
2021/07/27 09:07:28;;;;;;;;;9.25;9.25;;;;;34.71;25.11;101360.59;144176;627;131026;-70
2021/07/27 09:10:44;;;;;;;;;11.25;11.25;;;;;34.61;25.47;101358.09;144152;625;132010;-71
2021/07/27 09:13:43;;;;;;;;;10.00;10.00;;;;;34.04;25.65;101363.03;144171;591;132012;-71
2021/07/27 09:16:47;;;;;;;;;11.50;11.50;;;;;34.29;25.30;101367.44;144164;625;132012;-71
2021/07/27 09:19:43;;;;;;;;;11.50;11.50;;;;;34.99;24.29;101354.50;144173;605;131020;-71
2021/07/27 09:22:35;;;;;;;;;13.25;13.25;;;;;35.52;23.95;101357.91;144155;697;131016;-70
2021/07/27 09:25:32;;;;;;;;;11.75;11.75;;;;;36.11;23.09;101356.00;144158;584;131021;-71
2021/07/27 09:28:25;;;;;;;;;12.00;12.00;;;;;36.64;22.40;101357.47;144155;586;132010;-71
2021/07/27 09:31:17;;;;;;;;;15.00;15.00;;;;;37.52;21.67;101352.22;144173;577;132008;-71
2021/07/27 09:34:15;;;;;;;;;13.75;12.25;;;;;37.46;21.81;101342.13;144152;602;132010;-71
2021/07/27 09:37:09;;;;;;;;;11.25;10.50;;;;;37.89;21.08;101347.28;144173;601;131020;-71
2021/07/27 09:40:12;;;;;;;;;14.75;14.00;;;;;38.45;20.58;101347.91;144150;588;132010;-71
2021/07/27 09:43:05;;;;;;;;;14.25;14.25;;;;;38.06;20.99;101355.09;144172;579;131020;-70
2021/07/27 09:46:02;;;;;;;;;16.50;15.50;;;;;37.90;21.15;101348.94;144163;614;132013;-71
2021/07/27 09:49:20;;;;;;;;;14.00;13.75;;;;;37.73;21.62;101343.00;144170;625;131020;-70
2021/07/27 09:52:14;;;;;;;;;12.25;12.25;;;;;37.53;22.02;101337.50;144151;617;132010;-72
2021/07/27 09:55:06;;;;;;;;;13.75;13.75;;;;;37.63;21.45;101341.72;144161;598;131021;-70
2021/07/27 09:57:58;;;;;;;;;13.00;13.00;;;;;37.76;21.71;101342.63;144162;570;131010;-70
2021/07/27 10:01:06;;;;;;;;;14.50;14.50;;;;;38.07;20.93;101326.62;144173;564;131021;-72
2021/07/27 10:04:08;;;;;;;;;15.00;14.00;;;;;37.80;21.35;101323.88;144152;563;132911;-69
2021/07/27 10:07:01;;;;;;;;;15.25;15.25;;;;;38.10;21.00;101312.50;144173;686;131020;-70
2021/07/27 10:09:54;;;;;;;;;15.25;13.25;;;;;38.18;21.25;101309.56;144155;587;131912;-71
2021/07/27 10:12:46;;;;;;;;;13.00;13.00;;;;;37.96;20.82;101308.06;144170;677;131020;-70
2021/07/27 10:15:57;;;;;;;;;16.00;14.75;;;;;37.86;21.00;101305.75;144169;561;131912;-70
2021/07/27 10:18:50;;;;;;;;;16.75;15.75;;;;;38.05;20.84;101301.34;144176;662;131020;-70
2021/07/27 10:21:43;;;;;;;;;13.25;13.25;;;;;38.26;20.79;101301.13;144149;574;132010;-71
2021/07/27 10:24:46;;;;;;;;;16.25;15.50;;;;;38.24;20.29;101308.72;144165;590;131020;-70
2021/07/27 10:27:38;;;;;;;;;17.75;17.25;;;;;37.92;21.30;101313.12;144152;575;132010;-70
2021/07/27 10:30:39;;;;;;;;;16.00;16.00;;;;;37.19;22.19;101300.09;144171;614;132013;-70
2021/07/27 10:33:32;;;;;;;;;17.00;17.00;;;;;37.35;22.26;101302.50;144153;635;131889;-71
2021/07/27 10:36:34;;;;;;;;;16.75;16.00;;;;;37.06;22.03;101301.75;144176;606;131020;-72
2021/07/27 10:39:26;;;;;;;;;15.00;15.00;;;;;37.06;22.27;101295.44;144147;579;132017;-70
2021/07/27 10:42:19;;;;;;;;;14.50;12.25;;;;;37.98;21.45;101300.50;144173;647;132008;-70
2021/07/27 10:45:31;;;;;;;;;14.50;14.50;;;;;37.07;21.80;101277.94;144165;610;132010;-72
2021/07/27 10:48:23;;;;;;;;;16.50;16.00;;;;;37.37;21.90;101294.94;144175;566;132006;-71
2021/07/27 10:51:16;;;;;;;;;16.00;16.00;;;;;36.85;22.60;101293.66;144153;579;131016;-71
2021/07/27 10:54:09;;;;;;;;;15.00;13.25;;;;;37.26;22.02;101290.00;144156;565;131021;-71
2021/07/27 10:57:05;;;;;;;;;13.75;13.75;;;;;36.96;22.20;101286.75;144150;572;131911;-72
2021/07/27 10:59:58;;;;;;;;;11.25;11.25;;;;;37.00;21.77;101291.59;144171;591;132008;-71
2021/07/27 11:03:00;;;;;;;;;15.50;14.75;;;;;36.86;22.00;101279.78;144152;592;132016;-72
2021/07/27 11:05:54;;;;;;;;;14.50;13.00;;;;;37.70;20.89;101276.84;144172;575;132008;-71
2021/07/27 11:08:47;;;;;;;;;15.25;14.75;;;;;37.35;21.62;101277.84;144151;579;132010;-71
2021/07/27 11:11:52;;;;;;;;;12.25;12.25;;;;;38.18;20.73;101273.06;144168;576;132008;-70
2021/07/27 11:14:44;;;;;;;;;13.00;13.00;;;;;37.36;21.39;101267.75;144162;564;132013;-73
2021/07/27 11:17:36;;;;;;;;;13.00;12.00;;;;;37.33;21.04;101270.91;144168;644;132008;-71
2021/07/27 11:20:40;;;;;;;;;11.25;11.25;;;;;36.68;22.47;101263.06;144155;592;131911;-71
2021/07/27 11:23:37;;;;;;;;;10.25;10.25;;;;;36.73;21.94;101255.91;144155;586;132008;-72
2021/07/27 11:26:41;;;;;;;;;14.50;14.50;;;;;36.82;21.83;101264.81;144158;571;132010;-74
2021/07/27 11:29:33;;;;;;;;;13.25;13.25;;;;;37.25;20.65;101267.28;144171;565;132013;-73
2021/07/27 11:32:26;;;;;;;;;14.25;13.25;;;;;37.58;20.82;101265.69;144153;610;131859;-70
2021/07/27 11:35:22;;;;;;;;;13.75;13.50;;;;;36.92;20.12;101256.22;144170;591;132008;-77
2021/07/27 11:38:22;;;;;;;;;12.00;11.50;;;;;37.50;20.82;101257.69;144155;579;132011;-74
2021/07/27 11:41:15;;;;;;;;;12.00;11.50;;;;;37.28;21.51;101263.28;144172;624;131020;-70
2021/07/27 11:44:08;;;;;;;;;12.75;11.50;;;;;37.27;20.29;101261.59;144162;577;132011;-70
2021/07/27 11:47:01;;;;;;;;;11.25;10.75;;;;;37.79;20.64;101266.56;144169;590;132008;-73
2021/07/27 11:50:03;;;;;;;;;11.00;11.00;;;;;38.10;20.68;101255.78;144157;565;131911;-73
2021/07/27 11:53:06;;;;;;;;;13.50;13.50;;;;;37.17;21.54;101258.41;144157;604;132008;-75
2021/07/27 11:55:58;;;;;;;;;12.25;11.00;;;;;38.39;21.46;101247.34;144154;585;131911;-74
2021/07/27 11:59:38;;;;;;;;;14.25;13.50;;;;;38.08;21.80;101248.84;144175;564;131021;-72
2021/07/27 12:02:31;;;;;;;;;12.00;12.00;;;;;37.89;22.09;101239.56;144150;569;132010;-71
2021/07/27 12:05:23;;;;;;;;;13.75;13.75;;;;;38.05;21.86;101249.25;144178;571;131012;-73
2021/07/27 12:08:15;;;;;;;;;11.00;11.00;;;;;38.40;21.69;101232.56;144162;590;131012;-71
2021/07/27 12:11:08;;;;;;;;;14.00;14.00;;;;;37.83;22.16;101240.44;144178;640;131020;-73
2021/07/27 12:14:00;;;;;;;;;13.25;13.25;;;;;37.86;23.16;101235.38;144166;633;131017;-70
2021/07/27 12:16:53;;;;;;;;;8.50;8.50;;;;;37.31;23.83;101238.25;144172;632;132008;-70
2021/07/27 12:19:45;;;;;;;;;11.50;11.50;;;;;37.46;23.84;101227.13;144151;628;131911;-70
2021/07/27 12:22:37;;;;;;;;;13.75;12.50;;;;;37.83;23.68;101229.47;144153;657;132029;-70
2021/07/27 12:25:30;;;;;;;;;13.00;13.00;;;;;37.90;23.05;101225.66;144153;624;131029;-69
2021/07/27 12:28:22;;;;;;;;;13.25;12.00;;;;;37.97;23.38;101219.34;144166;584;132013;-70
2021/07/27 12:31:14;;;;;;;;;10.25;10.25;;;;;37.88;24.27;101211.34;144154;624;131017;-72
2021/07/27 12:34:06;;;;;;;;;14.50;14.00;;;;;37.95;24.29;101213.22;144171;607;131020;-72
2021/07/27 12:36:59;;;;;;;;;14.00;13.00;;;;;37.44;25.08;101212.78;144151;664;132010;-76
2021/07/27 12:39:52;;;;;;;;;16.50;15.50;;;;;35.92;26.69;101210.84;144166;569;132008;-76
2021/07/27 12:42:44;;;;;;;;;9.25;9.25;;;;;36.32;26.34;101206.69;144166;657;132011;-73
2021/07/27 12:45:43;;;;;;;;;12.00;11.25;;;;;35.58;26.72;101201.53;144169;574;132020;-72
2021/07/27 12:48:36;;;;;;;;;13.00;13.00;;;;;36.36;26.52;101203.37;144154;605;131016;-72
2021/07/27 12:51:28;;;;;;;;;12.50;12.50;;;;;36.12;27.07;101195.66;144157;630;131998;-76
2021/07/27 12:54:20;;;;;;;;;14.75;13.00;;;;;35.69;29.31;101207.47;144153;608;132010;-74
2021/07/27 12:57:13;;;;;;;;;15.75;15.75;;;;;36.19;29.19;101208.28;144176;573;132020;-70
2021/07/27 13:00:05;;;;;;;;;14.50;13.75;;;;;36.11;29.22;101200.25;144149;596;132012;-69
2021/07/27 13:02:58;;;;;;;;;12.50;12.50;;;;;36.47;28.94;101201.97;144174;584;131020;-68
2021/07/27 13:05:50;;;;;;;;;12.50;12.50;;;;;35.82;29.25;101190.38;144154;694;131912;-70
2021/07/27 13:08:42;;;;;;;;;13.25;13.25;;;;;35.66;33.02;101186.03;144174;675;131020;-69
2021/07/27 13:11:36;;;;;;;;;13.25;13.25;;;;;35.48;32.96;101192.81;144164;582;131033;-69
2021/07/27 13:14:43;;;;;;;;;13.00;13.00;;;;;36.54;29.05;101178.22;144172;648;132008;-68
2021/07/27 13:17:35;;;;;;;;;12.75;12.75;;;;;36.02;31.89;101168.66;144145;603;132010;-68
2021/07/27 13:20:28;;;;;;;;;14.75;14.75;;;;;35.46;33.21;101178.53;144157;566;132008;-69
2021/07/27 13:23:20;;;;;;;;;14.50;14.50;;;;;35.05;32.52;101179.16;144151;626;132010;-69